Airfield :
LOGIN :

Register | Disclaimer

   EN    FR    IT 

 










Legend :    VFR   Marginal VFR   IFR   Intensive IFR   Very Intensive IFR
Visi :
Ceiling :
>= 8 km
>= 3000ft
5 to 8 km
1000 to 3000 ft
1500m to 5 km
500 to 1000 ft
800 to 1500m
200 to 500 ft
< 800m
< 200 ft
Symbols :   Thunderstorms  Fog  Heavy snow  Heavy precipitations  Wind > 20 kt
SIGMETs :     Misc.  Thunderstorms  Icing  Turbulence  Mountain Waves  Volcanic Ashes






- Airport Elevation : 200 ft


EBBL - Klein Brogel AB

CURRENT METAR :
  • 080903Z 23010KT 7000 FEW008 SCT028 BKN060 03/02 Q1009 WHT BLU TEMPO GRN

EXPIRED METARs :
  • 080855Z 24009KT 6000 FEW008 SCT028 BKN060 03/02 Q1008 WHT WHT TEMPO GRN
  • 080825Z 23010KT 6000 FEW008 SCT026 BKN060 03/02 Q1009 WHT WHT TEMPO GRN
  • 080824Z 23010KT 6000 FEW008 SCT026 BKN060 03/02 Q1009 WHT WHT TEMPO GRN
  • 080808Z 23009KT 5000 BR SCT008 OVC060 03/02 Q1009 GRN GRN BECMG WHT
  • 080725Z 23009KT 4000 BR SCT006 OVC060 03/02 Q1009 YLO YLO BECMG GRN
  • 080703Z 24009KT 5000 BR SCT006 OVC060 03/02 Q1009 YLO YLO BECMG GRN
  • 080625Z 24009KT 5000 BR BKN006 03/02 Q1009 YLO YLO TEMPO GRN

TAF TAF EBBL
Valid from the 08 at 07:00 until the 08 at 16:00 UTC


080541Z 0807/0816 24008KT 4000 BR BKN006
BECMG 0807/0809 8000 FEW009 BKN020
TEMPO 0807/0816 4000 -SHRA SCT007 SCT018TCU
PROB40
TEMPO 0807/0816 2000 -SHRASN BKN005 SCT015TCU



MET'MAP, your aeronautical weather chart ! - Copyright ORBIFLY December 2007 - Disclaimer

ORBIFLY MET'MAP TEAM :

Programming & Development : Alexandra Zaïnal
Original concept : Baudouin d'Aumeries
Technical & hardware support : Manuel Goepfert
Assistance : Marc-Olivier Méhu




SOURCES & CREDITS :

   NOAA